createdAt,value
2018-05-17T00:00:08.454Z,104637.30
2018-05-17T00:02:36.002Z,104663.73
2018-05-17T00:05:03.564Z,104647.47
2018-05-17T00:07:31.139Z,104638.33
2018-05-17T00:09:58.751Z,104655.61
2018-05-17T00:12:26.292Z,104653.58
2018-05-17T00:14:53.876Z,104659.67
2018-05-17T00:17:21.401Z,104648.49
2018-05-17T00:19:48.931Z,104647.47
2018-05-17T00:22:16.846Z,104651.54
2018-05-17T00:24:44.379Z,104623.08
2018-05-17T00:27:11.916Z,104638.33
2018-05-17T00:29:39.472Z,104621.04
2018-05-17T00:32:07.148Z,104644.42
2018-05-17T00:34:34.684Z,104633.24
2018-05-17T00:37:02.212Z,104632.23
2018-05-17T00:39:29.760Z,104635.27
2018-05-17T00:41:57.338Z,104607.83
2018-05-17T00:44:24.887Z,104641.38
2018-05-17T00:46:52.419Z,104650.52
2018-05-17T00:49:19.966Z,104666.79
2018-05-17T00:51:47.895Z,104641.38
2018-05-17T00:54:15.475Z,104620.02
2018-05-17T00:56:43.035Z,104639.34
2018-05-17T00:59:10.601Z,104619.01
2018-05-17T01:01:38.137Z,104641.38
2018-05-17T01:04:05.798Z,104620.02
2018-05-17T01:06:33.327Z,104596.64
2018-05-17T01:09:00.865Z,104575.30
2018-05-17T01:11:28.424Z,104576.31
2018-05-17T01:13:55.965Z,104607.83
2018-05-17T01:16:23.566Z,104605.80
2018-05-17T01:18:51.095Z,104565.13
2018-05-17T01:21:18.632Z,104555.98
2018-05-17T01:23:46.187Z,104581.39
2018-05-17T01:26:13.714Z,104551.91
2018-05-17T01:28:41.399Z,104570.21
2018-05-17T01:31:08.924Z,104558.02
2018-05-17T01:33:36.455Z,104567.16
2018-05-17T01:36:04.147Z,104579.36
2018-05-17T01:38:31.675Z,104568.18
2018-05-17T01:40:59.203Z,104582.41
2018-05-17T01:43:26.979Z,104560.05
2018-05-17T01:45:54.507Z,104577.33
2018-05-17T01:48:22.038Z,104585.46
2018-05-17T01:50:49.588Z,104589.53
2018-05-17T01:53:17.125Z,104598.67
2018-05-17T01:55:44.697Z,104576.31
2018-05-17T01:58:12.220Z,104570.21
2018-05-17T02:00:39.807Z,104573.27
2018-05-17T02:03:07.335Z,104575.30
2018-05-17T02:05:34.863Z,104585.46
2018-05-17T02:08:02.423Z,104600.71
2018-05-17T02:10:30.489Z,104583.43
2018-05-17T02:12:58.023Z,104597.66
2018-05-17T02:15:25.560Z,104578.34
2018-05-17T02:17:53.115Z,104588.52
2018-05-17T02:20:20.638Z,104572.25
2018-05-17T02:22:48.186Z,104600.71
2018-05-17T02:25:15.711Z,104588.52
2018-05-17T02:27:43.291Z,104596.64
2018-05-17T02:30:10.815Z,104571.23
2018-05-17T02:32:38.349Z,104546.83
2018-05-17T02:35:05.944Z,104596.64
2018-05-17T02:37:33.507Z,104546.83
2018-05-17T02:40:01.035Z,104547.84
2018-05-17T02:42:28.594Z,104592.58
2018-05-17T02:44:56.142Z,104578.34
2018-05-17T02:47:23.713Z,104594.61
2018-05-17T02:49:51.243Z,104580.38
2018-05-17T02:52:18.804Z,104581.39
2018-05-17T02:54:46.333Z,104581.39
2018-05-17T02:57:13.904Z,104637.30
2018-05-17T02:59:41.455Z,104591.56
2018-05-17T03:02:08.990Z,104607.83
2018-05-17T03:04:36.544Z,104624.09
2018-05-17T03:07:04.080Z,104609.86
2018-05-17T03:09:31.837Z,104630.19
2018-05-17T03:11:59.376Z,104614.94
2018-05-17T03:14:26.915Z,104600.71
2018-05-17T03:16:54.501Z,104603.76
2018-05-17T03:19:22.036Z,104588.52
2018-05-17T03:21:49.596Z,104626.13
2018-05-17T03:24:17.278Z,104591.56
2018-05-17T03:26:44.807Z,104627.14
2018-05-17T03:29:12.365Z,104593.59
2018-05-17T03:31:39.924Z,104641.38
2018-05-17T03:34:07.455Z,104595.63
2018-05-17T03:36:35.016Z,104581.39
2018-05-17T03:39:02.542Z,104572.25
2018-05-17T03:41:30.109Z,104586.48
2018-05-17T03:43:57.639Z,104598.67
2018-05-17T03:46:26.215Z,104605.80
2018-05-17T03:48:53.742Z,104619.01
2018-05-17T03:51:21.271Z,104621.04
2018-05-17T03:53:48.823Z,104614.94
2018-05-17T03:56:16.399Z,104597.66
2018-05-17T03:58:43.926Z,104589.53
2018-05-17T04:01:23.364Z,104572.25
2018-05-17T04:04:02.669Z,104596.64
2018-05-17T04:06:41.092Z,104604.77
2018-05-17T04:09:08.648Z,104573.27
2018-05-17T04:11:36.188Z,104591.56
2018-05-17T04:14:03.743Z,104588.52
2018-05-17T04:16:31.270Z,104569.20
2018-05-17T04:18:58.845Z,104583.43
2018-05-17T04:21:26.384Z,104574.28
2018-05-17T04:23:54.330Z,104550.89
2018-05-17T04:26:22.655Z,104536.66
2018-05-17T04:28:50.183Z,104569.20
2018-05-17T04:31:17.732Z,104572.25
2018-05-17T04:33:45.283Z,104545.81
2018-05-17T04:36:12.812Z,104581.39
2018-05-17T04:38:40.372Z,104617.99
2018-05-17T04:41:07.903Z,104564.11
2018-05-17T04:43:35.463Z,104549.88
2018-05-17T04:46:03.096Z,104554.96
2018-05-17T04:48:30.630Z,104557.00
2018-05-17T04:50:58.154Z,104555.98
2018-05-17T04:53:25.866Z,104580.38
2018-05-17T04:55:53.404Z,104554.96
2018-05-17T04:58:20.948Z,104515.31
2018-05-17T05:00:49.203Z,104548.86
2018-05-17T05:03:16.730Z,104487.87
2018-05-17T05:05:44.262Z,104494.98
2018-05-17T05:08:11.817Z,104476.69
2018-05-17T05:10:39.363Z,104512.27
2018-05-17T05:13:07.284Z,104515.31
2018-05-17T05:15:34.814Z,104501.08
2018-05-17T05:18:02.356Z,104476.69
2018-05-17T05:20:29.910Z,104461.44
2018-05-17T05:22:57.443Z,104396.37
2018-05-17T05:25:25.435Z,104390.27
2018-05-17T05:27:52.963Z,104332.33
2018-05-17T05:30:20.491Z,104330.30
2018-05-17T05:32:48.047Z,104291.67
2018-05-17T05:35:15.588Z,104328.27
2018-05-17T05:37:43.115Z,104334.36
2018-05-17T05:40:10.716Z,104290.66
2018-05-17T05:42:38.267Z,104348.59
2018-05-17T05:45:05.947Z,104319.11
2018-05-17T05:47:33.478Z,104332.33
2018-05-17T05:50:01.016Z,104328.27
2018-05-17T05:52:28.570Z,104316.06
2018-05-17T05:54:56.102Z,104282.52
2018-05-17T05:57:23.659Z,104231.69
2018-05-17T05:59:51.193Z,104214.41
2018-05-17T06:02:18.968Z,104213.39
2018-05-17T06:04:46.483Z,104247.95
2018-05-17T06:07:14.985Z,104232.70
2018-05-17T06:09:42.576Z,104205.27
2018-05-17T06:12:10.104Z,104138.17
2018-05-17T06:14:37.687Z,104109.71
2018-05-17T06:17:05.224Z,104194.08
2018-05-17T06:19:32.755Z,104108.70
2018-05-17T06:22:00.317Z,104018.23
2018-05-17T06:24:27.847Z,104287.60
2018-05-17T06:26:55.430Z,104175.78
2018-05-17T06:29:22.964Z,103986.72
2018-05-17T06:31:50.504Z,104020.27
2018-05-17T06:34:18.059Z,104069.05
2018-05-17T06:36:45.584Z,104019.25
2018-05-17T06:39:13.141Z,104033.48
2018-05-17T06:41:40.702Z,104042.63
2018-05-17T06:44:08.277Z,103982.66
2018-05-17T06:46:35.837Z,103881.01
2018-05-17T06:49:03.430Z,103955.20
2018-05-17T06:51:30.971Z,103989.77
2018-05-17T06:53:58.511Z,103971.47
2018-05-17T06:56:26.111Z,103917.59
2018-05-17T06:58:53.638Z,103957.23
2018-05-17T07:01:21.283Z,103947.08
2018-05-17T07:03:48.844Z,103919.63
2018-05-17T07:06:16.372Z,103921.66
2018-05-17T07:08:43.934Z,103963.34
2018-05-17T07:11:11.468Z,103852.55
2018-05-17T07:13:39.022Z,103999.93
2018-05-17T07:16:06.561Z,103871.86
2018-05-17T07:18:34.471Z,103879.99
2018-05-17T07:21:01.879Z,103922.69
2018-05-17T07:23:29.408Z,103892.19
2018-05-17T07:25:57.137Z,103952.16
2018-05-17T07:28:24.668Z,103836.28
2018-05-17T07:30:52.200Z,103776.31
2018-05-17T07:33:20.277Z,103704.16
2018-05-17T07:35:47.806Z,103544.59
2018-05-17T07:38:15.347Z,103552.72
2018-05-17T07:40:42.896Z,103576.09
2018-05-17T07:43:10.456Z,103707.20
2018-05-17T07:45:38.017Z,103807.83
2018-05-17T07:48:05.575Z,103846.45
2018-05-17T07:50:33.112Z,103735.66
2018-05-17T07:53:00.680Z,103643.17
2018-05-17T07:55:28.210Z,103772.25
2018-05-17T07:57:55.810Z,103727.53
2018-05-17T08:00:23.344Z,103809.86
2018-05-17T08:02:50.871Z,103767.17
2018-05-17T08:05:18.438Z,103904.38
2018-05-17T08:07:45.966Z,103828.16
2018-05-17T08:10:13.523Z,103628.95
2018-05-17T08:12:41.056Z,103503.94
2018-05-17T08:15:08.640Z,103645.20
2018-05-17T08:17:36.178Z,103518.16
2018-05-17T08:20:03.714Z,103536.45
2018-05-17T08:22:31.280Z,103493.77
2018-05-17T08:24:58.893Z,103313.89
2018-05-17T08:27:26.421Z,103145.20
2018-05-17T08:29:53.960Z,103377.91
2018-05-17T09:54:18.539Z,103106.58
2018-05-17T09:56:46.218Z,103101.50
2018-05-17T09:59:13.743Z,103244.78
2018-05-17T10:01:41.277Z,103154.34
2018-05-17T10:04:08.831Z,103060.85
2018-05-17T10:06:36.359Z,102978.54
2018-05-17T10:09:03.936Z,103054.75
2018-05-17T10:11:31.472Z,103062.88
2018-05-17T10:13:59.028Z,103119.79
2018-05-17T10:16:26.592Z,103101.50
2018-05-17T10:18:54.506Z,103251.90
2018-05-17T10:21:22.059Z,102947.04
2018-05-17T10:23:49.581Z,102878.95
2018-05-17T10:26:17.324Z,102869.81
2018-05-17T10:28:44.851Z,102980.58
2018-05-17T10:31:12.374Z,103009.02
2018-05-17T10:33:39.927Z,102946.02
2018-05-17T10:36:07.459Z,102862.70
2018-05-17T10:38:35.041Z,102906.39
2018-05-17T10:41:02.571Z,102995.81
2018-05-17T10:43:30.105Z,102989.72
2018-05-17T10:45:57.722Z,103014.11
2018-05-17T10:48:25.250Z,102913.50
2018-05-17T10:50:52.775Z,102840.34
2018-05-17T10:53:20.337Z,102829.17
2018-05-17T10:55:47.906Z,102821.04
2018-05-17T10:58:15.449Z,102897.25
2018-05-17T11:00:42.999Z,102794.62
2018-05-17T11:03:10.665Z,102731.63
2018-05-17T11:05:38.200Z,102710.28
2018-05-17T11:08:05.735Z,102750.93
2018-05-17T11:10:33.286Z,102813.92
2018-05-17T11:13:00.811Z,102765.16
2018-05-17T11:15:28.564Z,102668.62
2018-05-17T11:17:56.109Z,102563.97
2018-05-17T11:20:23.625Z,102571.09
2018-05-17T11:22:51.188Z,102575.15
2018-05-17T11:25:18.863Z,102601.56
2018-05-17T11:27:46.405Z,102659.48
2018-05-17T11:30:13.996Z,102696.06
2018-05-17T11:32:41.555Z,102640.17
2018-05-17T11:35:09.093Z,102592.42
2018-05-17T11:37:36.710Z,102687.93
2018-05-17T11:40:04.248Z,102684.88
2018-05-17T11:42:31.776Z,102478.63
2018-05-17T11:44:59.855Z,102576.16
2018-05-17T11:47:27.398Z,102536.54
2018-05-17T11:49:54.925Z,102540.61
2018-05-17T11:52:22.485Z,102657.45
2018-05-17T11:54:50.035Z,102623.92
2018-05-17T11:57:17.571Z,102541.63
2018-05-17T11:59:45.303Z,102610.71
2018-05-17T12:02:12.831Z,102500.98
2018-05-17T12:04:40.366Z,102428.84
2018-05-17T12:07:07.921Z,102443.06
2018-05-17T12:09:35.451Z,102364.83
2018-05-17T12:12:03.031Z,102472.53
2018-05-17T12:14:30.695Z,102485.73
2018-05-17T12:16:58.227Z,102591.41
2018-05-17T12:19:25.796Z,102475.58
2018-05-17T12:21:53.408Z,102413.60
2018-05-17T12:24:20.947Z,102336.39
2018-05-17T12:26:48.474Z,102345.53
2018-05-17T12:29:16.038Z,102426.81
2018-05-17T12:31:43.720Z,102531.45
2018-05-17T12:34:11.176Z,102650.34
2018-05-17T12:36:38.702Z,102593.44
2018-05-17T12:39:06.787Z,102482.69
2018-05-17T12:41:34.325Z,102505.04
2018-05-17T12:44:01.852Z,102473.55
2018-05-17T12:46:29.406Z,102573.12
2018-05-17T12:48:56.994Z,102497.93
2018-05-17T12:51:24.542Z,102370.93
2018-05-17T12:53:52.095Z,102511.14
2018-05-17T12:56:19.806Z,102487.77
2018-05-17T12:58:47.367Z,102404.45
2018-05-17T13:01:14.909Z,102365.84
2018-05-17T13:03:42.474Z,102207.36
2018-05-17T13:06:10.009Z,102221.58
2018-05-17T13:08:37.683Z,102210.41
2018-05-17T13:11:05.210Z,102292.70
2018-05-17T13:13:32.738Z,102449.16
2018-05-17T13:16:00.295Z,102301.84
2018-05-17T13:18:27.832Z,102269.34
2018-05-17T13:20:55.384Z,102297.78
2018-05-17T13:23:22.972Z,102393.28
2018-05-17T13:25:50.503Z,102402.42
2018-05-17T13:28:18.055Z,102504.02
2018-05-17T13:30:45.598Z,102590.39
2018-05-17T13:33:13.187Z,102465.42
2018-05-17T13:35:40.715Z,102596.48
2018-05-17T13:38:08.261Z,102422.75
2018-05-17T13:40:35.824Z,102455.26
2018-05-17T13:43:03.355Z,102497.93
2018-05-17T13:45:30.916Z,102384.14
2018-05-17T13:47:58.500Z,102266.28
2018-05-17T13:50:26.029Z,102166.72
2018-05-17T13:52:53.570Z,102307.94
2018-05-17T13:55:21.137Z,102381.09
2018-05-17T13:57:48.683Z,102539.59
2018-05-17T14:00:16.280Z,102572.10
2018-05-17T14:02:43.896Z,102340.45
2018-05-17T14:05:11.372Z,102395.31
2018-05-17T14:07:38.934Z,102414.62
2018-05-17T14:10:06.464Z,102409.54
2018-05-17T14:12:34.464Z,102469.48
2018-05-17T14:15:01.995Z,102664.56
2018-05-17T14:17:29.523Z,102570.06
2018-05-17T14:19:57.489Z,102470.50
2018-05-17T14:22:25.050Z,102664.56
2018-05-17T14:24:52.586Z,102601.56
2018-05-17T14:27:20.143Z,102615.79
2018-05-17T14:29:47.721Z,102332.32
2018-05-17T14:32:15.263Z,102313.02
2018-05-17T14:34:42.788Z,102176.88
2018-05-17T14:37:10.809Z,102316.06
2018-05-17T14:39:38.348Z,102549.75
2018-05-17T14:42:05.870Z,102668.62
2018-05-17T14:44:33.463Z,102698.09
2018-05-17T14:47:00.988Z,102825.11
2018-05-17T14:49:28.528Z,102929.77
2018-05-17T14:51:56.093Z,102778.36
2018-05-17T14:54:23.625Z,102657.45
2018-05-17T14:56:51.185Z,102323.17
2018-05-17T14:59:18.712Z,102571.09
2018-05-17T15:01:46.307Z,102711.30
2018-05-17T15:04:13.848Z,102743.81
2018-05-17T15:06:41.379Z,102677.77
2018-05-17T15:09:08.945Z,102550.77
2018-05-17T15:11:36.489Z,102574.13
2018-05-17T15:14:04.222Z,102599.53
2018-05-17T15:16:31.763Z,102637.13
2018-05-17T15:18:59.292Z,102734.67
2018-05-17T15:21:26.907Z,102939.92
2018-05-17T15:23:54.435Z,102832.22
2018-05-17T15:26:22.716Z,102790.56
2018-05-17T15:28:50.283Z,102837.30
2018-05-17T15:31:17.815Z,102773.28
2018-05-17T15:33:45.367Z,102729.59
2018-05-17T15:36:12.994Z,102974.48
2018-05-17T15:38:40.491Z,102999.87
2018-05-17T15:41:08.020Z,102968.38
2018-05-17T15:43:35.592Z,103014.11
2018-05-17T15:46:03.148Z,102946.02
2018-05-17T15:48:31.059Z,102858.63
2018-05-17T15:50:58.581Z,102976.51
2018-05-17T15:53:26.114Z,102986.67
2018-05-17T15:55:54.074Z,103009.02
2018-05-17T15:58:21.607Z,103073.05
2018-05-17T16:00:49.143Z,102992.77
2018-05-17T16:03:16.700Z,103121.82
2018-05-17T16:05:44.224Z,103099.47
2018-05-17T16:08:11.784Z,103135.03
2018-05-17T16:10:39.297Z,103095.40
2018-05-17T16:13:06.895Z,103086.26
2018-05-17T16:15:34.521Z,103008.01
2018-05-17T16:18:02.021Z,103182.80
2018-05-17T16:20:29.590Z,103088.29
2018-05-17T16:22:57.280Z,103086.26
2018-05-17T16:25:24.878Z,103198.03
2018-05-17T16:27:52.406Z,103294.58
2018-05-17T16:30:20.411Z,103420.59
2018-05-17T16:32:47.959Z,103384.02
2018-05-17T16:35:15.517Z,103169.58
2018-05-17T16:37:43.088Z,103185.84
2018-05-17T16:40:10.632Z,103202.11
2018-05-17T16:42:38.272Z,103269.17
2018-05-17T16:45:05.827Z,103322.02
2018-05-17T16:47:33.386Z,103287.47
2018-05-17T16:50:00.948Z,103327.10
2018-05-17T16:52:28.921Z,103325.06
2018-05-17T16:54:56.458Z,103347.42
2018-05-17T16:57:24.000Z,103397.23
2018-05-17T16:59:51.559Z,103406.37
2018-05-17T17:02:19.096Z,103437.88
2018-05-17T17:04:46.757Z,103516.12
2018-05-17T17:07:14.260Z,103523.24
2018-05-17T17:09:41.795Z,103573.05
2018-05-17T17:12:09.399Z,103551.70
2018-05-17T17:14:36.931Z,103558.81
2018-05-17T17:17:04.469Z,103682.81
2018-05-17T17:19:32.020Z,103674.68
2018-05-17T17:21:59.607Z,103692.98
2018-05-17T17:24:27.143Z,103706.19
2018-05-17T17:26:54.681Z,103752.94
2018-05-17T17:29:22.244Z,103711.27
2018-05-17T17:31:49.939Z,103717.37
2018-05-17T17:34:17.529Z,103784.45
2018-05-17T17:36:45.037Z,103745.83
2018-05-17T17:39:12.701Z,103739.73
2018-05-17T17:41:40.211Z,103828.16
2018-05-17T17:44:07.754Z,103839.34
2018-05-17T17:46:35.304Z,103882.02
2018-05-17T17:49:02.836Z,103902.35
2018-05-17T17:51:30.548Z,103929.80
2018-05-17T17:53:58.092Z,103876.95
2018-05-17T17:56:26.593Z,103873.89
2018-05-17T17:58:54.147Z,103863.73
2018-05-17T18:01:21.763Z,103964.36
2018-05-17T18:03:49.306Z,103964.36
2018-05-17T18:06:16.837Z,104002.98
2018-05-17T18:08:44.363Z,103993.83
2018-05-17T18:11:11.927Z,103999.93
2018-05-17T18:13:39.456Z,104030.42
2018-05-17T18:16:07.021Z,104020.27
2018-05-17T18:18:35.445Z,103994.84
2018-05-17T18:21:02.988Z,104021.28
2018-05-17T18:23:30.557Z,103993.83
2018-05-17T18:25:58.157Z,104083.28
2018-05-17T18:28:25.692Z,104095.48
2018-05-17T18:30:53.234Z,104044.66
2018-05-17T18:33:20.787Z,104038.55
2018-05-17T18:35:48.319Z,104038.55
2018-05-17T18:38:16.149Z,104117.84
2018-05-17T18:40:43.701Z,104091.41
2018-05-17T18:43:11.262Z,104133.09
2018-05-17T18:45:38.803Z,104148.34
2018-05-17T18:48:06.368Z,104145.29
2018-05-17T18:50:33.937Z,104167.65
2018-05-17T18:53:01.542Z,104220.51
2018-05-17T18:55:29.131Z,104191.03
2018-05-17T18:57:56.659Z,104196.11
2018-05-17T19:00:24.235Z,104191.03
2018-05-17T19:02:51.816Z,104253.04
2018-05-17T19:05:19.380Z,104243.89
2018-05-17T19:07:46.921Z,104173.75
2018-05-17T19:10:14.943Z,104207.30
2018-05-17T19:12:42.496Z,104198.14
2018-05-17T19:15:10.027Z,104307.93
2018-05-17T19:17:37.584Z,104240.84
2018-05-17T19:20:05.190Z,104269.30
2018-05-17T19:22:32.728Z,104245.92
2018-05-17T19:25:00.272Z,104225.59
2018-05-17T19:27:27.883Z,104272.36
2018-05-17T19:29:55.430Z,104308.95
2018-05-17T19:32:22.959Z,104237.79
2018-05-17T19:34:50.924Z,104192.05
2018-05-17T19:37:18.474Z,104243.89
2018-05-17T19:39:46.016Z,104262.19
2018-05-17T19:42:13.619Z,104231.69
2018-05-17T19:44:41.155Z,104309.97
2018-05-17T19:47:08.683Z,104264.22
2018-05-17T19:49:36.619Z,104265.23
2018-05-17T19:52:04.147Z,104279.47
2018-05-17T19:54:31.680Z,104305.90
2018-05-17T19:56:59.256Z,104274.39
2018-05-17T19:59:26.876Z,104321.14
2018-05-17T20:01:54.338Z,104310.98
2018-05-17T20:04:22.227Z,104342.50
2018-05-17T20:06:49.755Z,104359.78
2018-05-17T20:09:17.288Z,104384.17
2018-05-17T20:11:44.848Z,104327.24
2018-05-17T20:14:12.381Z,104367.91
2018-05-17T20:16:39.940Z,104366.89
2018-05-17T20:19:07.479Z,104354.69
2018-05-17T20:21:35.486Z,104358.77
2018-05-17T20:24:03.021Z,104400.44
2018-05-17T20:26:30.549Z,104431.95
2018-05-17T20:28:58.109Z,104396.37
2018-05-17T20:31:25.720Z,104417.72
2018-05-17T20:33:53.251Z,104400.44
2018-05-17T20:36:20.936Z,104403.48
2018-05-17T20:38:48.499Z,104452.28
2018-05-17T20:41:16.036Z,104409.59
2018-05-17T20:43:43.600Z,104395.36
2018-05-17T20:46:11.128Z,104436.02
2018-05-17T20:48:39.095Z,104483.80
2018-05-17T20:51:06.632Z,104500.06
2018-05-17T20:53:34.173Z,104498.03
2018-05-17T20:56:01.942Z,104478.72
2018-05-17T20:58:29.474Z,104485.83
2018-05-17T21:00:57.009Z,104466.52
2018-05-17T21:03:24.596Z,104464.48
2018-05-17T21:05:52.139Z,104517.34
2018-05-17T21:08:19.671Z,104532.59
2018-05-17T21:10:47.363Z,104524.46
2018-05-17T21:13:14.894Z,104496.00
2018-05-17T21:15:42.428Z,104477.70
2018-05-17T21:18:10.187Z,104494.98
2018-05-17T21:20:37.715Z,104481.77
2018-05-17T21:23:05.239Z,104454.31
2018-05-17T21:25:33.009Z,104485.83
2018-05-17T21:28:00.544Z,104467.53
2018-05-17T21:30:28.072Z,104489.90
2018-05-17T21:32:55.628Z,104514.30
2018-05-17T21:35:23.604Z,104472.62
2018-05-17T21:37:51.136Z,104477.70
2018-05-17T21:40:18.672Z,104447.20
2018-05-17T21:42:46.227Z,104481.77
2018-05-17T21:45:13.774Z,104494.98
2018-05-17T21:47:41.336Z,104498.03
2018-05-17T21:50:08.868Z,104493.97
2018-05-17T21:52:36.419Z,104493.97
2018-05-17T21:55:03.980Z,104516.33
2018-05-17T21:57:31.515Z,104497.02
2018-05-17T21:59:59.094Z,104503.11
2018-05-17T22:02:26.629Z,104524.46
2018-05-17T22:04:54.161Z,104482.78
2018-05-17T22:07:21.715Z,104489.90
2018-05-17T22:09:49.244Z,104500.06
2018-05-17T22:12:16.807Z,104503.11
2018-05-17T22:14:44.359Z,104460.42
2018-05-17T22:17:11.919Z,104499.05
2018-05-17T22:19:39.450Z,104499.05
2018-05-17T22:22:07.395Z,104515.31
2018-05-17T22:24:34.932Z,104496.00
2018-05-17T22:27:02.456Z,104504.13
2018-05-17T22:29:30.007Z,104479.73
2018-05-17T22:31:57.750Z,104479.73
2018-05-17T22:34:25.404Z,104497.02
2018-05-17T22:36:52.928Z,104489.90
2018-05-17T22:39:20.453Z,104494.98
2018-05-17T22:41:48.025Z,104520.39
2018-05-17T22:44:15.556Z,104497.02
2018-05-17T22:46:43.540Z,104516.33
2018-05-17T22:49:11.070Z,104487.87
2018-05-17T22:51:38.601Z,104509.21
2018-05-17T22:54:06.159Z,104503.11
2018-05-17T22:56:45.687Z,104514.30
2018-05-17T22:59:13.215Z,104526.50
2018-05-17T23:01:40.739Z,104553.95
2018-05-17T23:04:08.699Z,104544.80
2018-05-17T23:06:36.237Z,104559.03
2018-05-17T23:09:03.773Z,104582.41
2018-05-17T23:11:31.327Z,104620.02
2018-05-17T23:13:58.856Z,104512.27
2018-05-17T23:16:26.603Z,104542.77
2018-05-17T23:18:54.126Z,104571.23
2018-05-17T23:21:21.650Z,104562.08
2018-05-17T23:23:49.645Z,104542.77
2018-05-17T23:26:17.173Z,104540.73
2018-05-17T23:28:44.711Z,104538.70
2018-05-17T23:31:12.276Z,104566.14
2018-05-17T23:33:40.030Z,104562.08
2018-05-17T23:36:07.589Z,104571.23
2018-05-17T23:38:35.124Z,104568.18
2018-05-17T23:41:14.577Z,104559.03
2018-05-17T23:43:42.121Z,104568.18
2018-05-17T23:46:09.662Z,104574.28
2018-05-17T23:48:37.190Z,104570.21
2018-05-17T23:51:04.732Z,104571.23
2018-05-17T23:53:32.258Z,104600.71
2018-05-17T23:56:00.163Z,104593.59
2018-05-17T23:58:27.691Z,104599.70
